Time;durP1;ratioP1;P1;durP2;ratioP2;P2;SDS_P1;SDS_P2;PMS_P1;PMS_P2;Temp;Humidity;BMP_temperature;BMP_pressure;BME280_temperature;BME280_humidity;BME280_pressure;Samples;Min_cycle;Max_cycle;Signal;HPM_P1;HPM_P2
2021/09/07 00:00:23;;;;;;;11.60;9.15;;;;;;;21.15;55.52;102466.50;5096811;28;20039;-89
2021/09/07 00:02:48;;;;;;;10.30;8.93;;;;;;;21.41;55.41;102515.00;5098588;28;20050;-90
2021/09/07 00:05:14;;;;;;;11.52;10.02;;;;;;;21.17;55.44;102465.59;5098079;28;20057;-90
2021/09/07 00:07:41;;;;;;;12.68;9.82;;;;;;;21.18;55.32;102463.84;5096813;28;20088;-90
2021/09/07 00:10:11;;;;;;;10.88;9.20;;;;;;;21.19;55.32;102463.91;5098343;28;20091;-90
2021/09/07 00:12:37;;;;;;;11.40;9.50;;;;;;;21.46;55.44;102512.41;5097520;28;20020;-90
2021/09/07 00:15:06;;;;;;;11.48;9.40;;;;;;;21.16;55.48;102457.72;5098130;28;20092;-89
2021/09/07 00:17:32;;;;;;;13.18;9.52;;;;;;;21.43;55.49;102521.16;5098204;28;20027;-89
2021/09/07 00:19:57;;;;;;;12.93;9.57;;;;;;;21.30;55.29;102478.03;5098986;28;20043;-89
2021/09/07 00:22:23;;;;;;;11.35;9.70;;;;;;;21.43;55.34;102500.09;5099166;28;20026;-90
2021/09/07 00:24:51;;;;;;;10.95;8.95;;;;;;;21.18;55.32;102455.97;5098643;28;20020;-89
2021/09/07 00:27:16;;;;;;;11.88;10.68;;;;;;;21.17;55.34;102455.09;5081475;28;20127;-90
2021/09/07 00:29:42;;;;;;;10.85;9.02;;;;;;;21.19;55.31;102457.75;5098647;28;20024;-89
2021/09/07 00:32:08;;;;;;;10.35;9.25;;;;;;;21.33;55.23;102474.56;5099622;28;20043;-90
2021/09/07 00:34:34;;;;;;;11.88;9.07;;;;;;;21.18;55.20;102448.06;5099601;28;20012;-89
2021/09/07 00:37:01;;;;;;;14.02;10.90;;;;;;;21.14;55.39;102443.69;5098560;28;20065;-89
2021/09/07 00:39:27;;;;;;;12.60;9.77;;;;;;;21.15;55.25;102440.19;5098831;28;20035;-92
2021/09/07 00:42:02;;;;;;;12.73;9.35;;;;;;;21.16;55.24;102427.00;5100347;28;20032;-90
2021/09/07 00:44:29;;;;;;;10.23;8.68;;;;;;;21.16;55.22;102439.31;5098502;28;20028;-90
2021/09/07 00:47:04;;;;;;;9.80;8.07;;;;;;;21.14;55.33;102434.03;5099122;28;20028;-90
2021/09/07 00:49:32;;;;;;;12.57;10.02;;;;;;;21.18;55.14;102438.44;5099492;28;20023;-90
2021/09/07 00:51:58;;;;;;;14.25;9.75;;;;;;;21.16;55.13;102434.91;5099354;28;20020;-90
2021/09/07 00:54:28;;;;;;;12.52;9.93;;;;;;;21.18;55.24;102434.91;5099470;28;19908;-90
2021/09/07 00:56:55;;;;;;;11.23;9.15;;;;;;;21.16;55.26;102437.53;5099306;28;20027;-89
2021/09/07 00:59:22;;;;;;;11.73;9.05;;;;;;;21.25;55.24;102444.69;5098705;28;20016;-89
2021/09/07 01:01:48;;;;;;;11.32;9.15;;;;;;;21.39;55.13;102470.25;5098349;28;20040;-90
2021/09/07 01:04:14;;;;;;;10.15;9.15;;;;;;;21.29;55.11;102444.69;5098726;28;20024;-89
2021/09/07 01:06:40;;;;;;;10.40;8.80;;;;;;;21.32;55.03;102444.75;5098828;28;20015;-90
2021/09/07 01:09:07;;;;;;;10.85;9.43;;;;;;;21.24;55.16;102440.28;5097763;28;20024;-89
2021/09/07 01:11:33;;;;;;;11.95;9.38;;;;;;;21.17;55.09;102427.91;5098401;28;20098;-90
2021/09/07 01:14:00;;;;;;;9.55;8.52;;;;;;;21.25;55.10;102448.19;5099065;28;20016;-89
2021/09/07 01:16:25;;;;;;;9.88;8.88;;;;;;;21.17;55.26;102435.78;5097756;28;20040;-90
2021/09/07 01:18:52;;;;;;;12.18;9.52;;;;;;;21.18;55.13;102435.81;5098354;28;20023;-89
2021/09/07 01:21:18;;;;;;;12.23;9.93;;;;;;;21.32;55.02;102454.38;5098201;28;20031;-90
2021/09/07 01:23:46;;;;;;;10.32;8.95;;;;;;;21.24;55.15;102445.53;5099364;28;20114;-90
2021/09/07 01:26:17;;;;;;;10.20;9.20;;;;;;;21.24;55.12;102440.28;5098753;28;20024;-90
2021/09/07 01:28:44;;;;;;;11.13;9.25;;;;;;;21.15;55.15;102422.66;5097374;28;20024;-90
2021/09/07 01:31:10;;;;;;;11.25;8.60;;;;;;;21.41;55.05;102469.38;5097945;28;20036;-88
2021/09/07 01:33:39;;;;;;;11.10;9.88;;;;;;;21.15;55.21;102419.13;5081127;28;20038;-90
2021/09/07 01:36:06;;;;;;;13.23;10.40;;;;;;;21.30;55.19;102445.59;5348328;22;20023;-87
2021/09/07 01:38:33;;;;;;;13.25;9.35;;;;;;;21.23;55.11;102438.53;5057143;28;20061;-89
2021/09/07 01:41:00;;;;;;;12.50;9.80;;;;;;;21.23;55.10;102438.53;5056120;28;20089;-91
2021/09/07 01:43:26;;;;;;;10.93;8.88;;;;;;;21.17;55.11;102425.25;5058122;28;20092;-89
2021/09/07 01:45:53;;;;;;;11.25;8.98;;;;;;;21.14;55.09;102414.75;5055381;28;20032;-87
2021/09/07 01:48:23;;;;;;;12.20;9.73;;;;;;;21.25;55.12;102436.78;5056850;28;20028;-90
2021/09/07 01:50:49;;;;;;;11.25;9.70;;;;;;;21.39;54.99;102461.47;5039603;28;20021;-89
2021/09/07 01:53:18;;;;;;;11.40;9.75;;;;;;;21.23;55.14;102441.16;5040953;28;20087;-90
2021/09/07 01:55:44;;;;;;;10.55;8.93;;;;;;;21.26;55.12;102436.81;5057740;28;20021;-89
2021/09/07 01:58:09;;;;;;;11.23;9.48;;;;;;;21.23;55.22;102436.78;5056860;28;20023;-89
2021/09/07 02:00:35;;;;;;;11.20;9.77;;;;;;;21.22;55.03;102423.59;5038300;28;20021;-90
2021/09/07 02:03:04;;;;;;;12.32;10.25;;;;;;;21.28;55.05;102448.22;5056723;28;20017;-89
2021/09/07 02:05:30;;;;;;;11.63;9.20;;;;;;;21.12;55.28;102422.63;5056771;28;20060;-89
2021/09/07 02:07:56;;;;;;;9.82;8.82;;;;;;;21.10;55.04;102412.94;5055902;28;20475;-90
2021/09/07 02:10:22;;;;;;;11.57;8.90;;;;;;;21.11;55.24;102417.34;5055293;28;20043;-89
2021/09/07 02:12:48;;;;;;;10.18;8.95;;;;;;;21.38;55.19;102464.97;5056544;28;20017;-88
2021/09/07 02:15:15;;;;;;;11.93;9.52;;;;;;;21.11;55.07;102414.69;5055946;28;20029;-89
2021/09/07 02:17:41;;;;;;;10.80;9.55;;;;;;;21.26;55.28;102451.72;5056440;28;20025;-90
2021/09/07 02:20:08;;;;;;;11.13;9.93;;;;;;;21.23;55.19;102447.28;5055322;28;20044;-91
2021/09/07 02:22:34;;;;;;;10.32;8.90;;;;;;;21.13;55.14;102431.38;5054004;28;20035;-91
2021/09/07 02:24:59;;;;;;;12.57;9.55;;;;;;;21.21;55.14;102446.41;5049475;28;20464;-79
2021/09/07 02:27:24;;;;;;;15.30;10.02;;;;;;;21.35;55.14;102471.09;5040277;28;20031;-82
2021/09/07 02:29:50;;;;;;;13.05;11.00;;;;;;;21.34;55.25;102469.31;5023273;28;20092;-79
2021/09/07 02:32:15;;;;;;;10.43;9.32;;;;;;;21.33;55.17;102466.66;5035693;28;20048;-79
2021/09/07 02:34:41;;;;;;;11.15;9.20;;;;;;;21.30;55.10;102458.75;5040161;28;20028;-81
2021/09/07 02:37:07;;;;;;;12.52;10.50;;;;;;;21.36;55.07;102472.84;5024328;28;20053;-79
2021/09/07 02:39:32;;;;;;;13.30;9.18;;;;;;;21.22;55.14;102449.91;5036743;28;20021;-78
2021/09/07 02:41:58;;;;;;;14.25;10.18;;;;;;;21.35;55.26;102467.56;5019624;28;20087;-79
2021/09/07 02:44:24;;;;;;;9.70;8.68;;;;;;;21.24;55.16;102446.44;5025286;28;20067;-80
2021/09/07 02:46:51;;;;;;;11.15;9.93;;;;;;;21.33;55.03;102462.28;5000264;28;20565;-81
2021/09/07 02:49:16;;;;;;;11.02;8.63;;;;;;;21.30;55.03;102461.38;5016415;28;20120;-82
2021/09/07 02:51:47;;;;;;;11.55;9.00;;;;;;;21.29;55.08;102457.00;5029110;28;20093;-80
2021/09/07 02:54:13;;;;;;;13.80;10.70;;;;;;;21.34;54.95;102466.69;5017208;28;20036;-79
2021/09/07 02:56:39;;;;;;;10.63;9.30;;;;;;;21.34;55.00;102461.44;5014118;28;20026;-80
2021/09/07 02:59:04;;;;;;;12.32;10.23;;;;;;;21.22;55.27;102439.38;4996900;28;20080;-80
2021/09/07 03:01:29;;;;;;;11.32;9.52;;;;;;;21.24;55.13;102440.28;4980941;28;20026;-79
2021/09/07 03:03:55;;;;;;;11.15;9.25;;;;;;;21.32;55.24;102455.25;4980710;28;20026;-79
2021/09/07 03:06:20;;;;;;;12.73;9.30;;;;;;;21.24;55.10;102438.53;4996782;28;20037;-79
2021/09/07 03:08:46;;;;;;;12.40;9.82;;;;;;;21.23;54.97;102434.16;4997174;28;20033;-79
2021/09/07 03:11:11;;;;;;;11.88;9.57;;;;;;;21.33;55.15;102456.16;4996878;28;20022;-79
2021/09/07 03:13:36;;;;;;;9.90;8.90;;;;;;;21.17;55.12;102431.41;4996826;28;20033;-78
2021/09/07 03:16:02;;;;;;;11.25;10.02;;;;;;;21.22;55.15;102439.38;5028608;28;20029;-81
2021/09/07 03:18:27;;;;;;;12.43;10.70;;;;;;;21.17;55.07;102427.91;5001699;28;20059;-79
2021/09/07 03:20:53;;;;;;;10.98;9.07;;;;;;;21.32;54.87;102454.38;5016464;28;20056;-80
2021/09/07 03:23:18;;;;;;;11.60;9.18;;;;;;;21.22;55.03;102439.38;5048426;28;20501;-78
2021/09/07 03:25:43;;;;;;;10.95;9.70;;;;;;;21.28;55.18;102448.22;5003614;28;20064;-79
2021/09/07 03:28:09;;;;;;;9.98;8.50;;;;;;;21.32;55.04;102465.78;5007187;28;20056;-79
2021/09/07 03:30:34;;;;;;;10.82;9.35;;;;;;;21.23;54.89;102447.28;5035750;28;20033;-80
2021/09/07 03:33:00;;;;;;;13.93;10.30;;;;;;;21.30;54.98;102459.63;5019692;28;20052;-79
2021/09/07 03:35:27;;;;;;;11.75;10.35;;;;;;;21.31;55.03;102461.38;5019354;28;20028;-79
2021/09/07 03:37:52;;;;;;;12.02;10.23;;;;;;;21.15;55.10;102425.28;5048005;28;20152;-79
2021/09/07 03:40:17;;;;;;;11.88;9.70;;;;;;;21.28;55.16;102447.34;5036029;28;20522;-80
2021/09/07 03:42:43;;;;;;;11.90;9.98;;;;;;;21.21;55.08;102441.13;5014821;28;20116;-80
2021/09/07 03:45:12;;;;;;;13.23;10.63;;;;;;;21.18;55.21;102430.53;4983924;28;20033;-79
2021/09/07 03:47:39;;;;;;;11.85;10.55;;;;;;;21.23;55.06;102446.41;5018914;28;20086;-79
2021/09/07 03:50:05;;;;;;;11.65;9.85;;;;;;;21.26;55.08;102449.06;5032672;28;20021;-78
2021/09/07 03:52:31;;;;;;;11.32;9.25;;;;;;;21.25;55.13;102437.69;5015939;28;20017;-80
2021/09/07 03:54:56;;;;;;;11.48;9.93;;;;;;;21.21;54.98;102432.34;5016230;28;20036;-78
2021/09/07 03:57:22;;;;;;;12.65;10.27;;;;;;;21.27;54.99;102442.94;5016128;28;20055;-79
2021/09/07 03:59:56;;;;;;;11.32;9.38;;;;;;;21.30;55.39;102442.97;5016106;28;20030;-79
2021/09/07 04:02:22;;;;;;;15.00;10.70;;;;;;;21.18;54.93;102425.28;5015995;28;20063;-80
2021/09/07 04:04:47;;;;;;;13.00;10.38;;;;;;;21.29;55.15;102443.84;5031836;28;20032;-79
2021/09/07 04:07:13;;;;;;;12.50;10.40;;;;;;;21.30;55.23;102438.56;5019455;28;20025;-79
2021/09/07 04:09:38;;;;;;;11.45;10.07;;;;;;;21.28;55.10;102431.56;5022184;28;20080;-79
2021/09/07 04:12:04;;;;;;;12.23;9.90;;;;;;;21.19;55.12;102421.81;4999420;28;20029;-81
2021/09/07 04:14:29;;;;;;;12.68;10.27;;;;;;;21.28;55.10;102448.22;5004642;28;20132;-80
2021/09/07 04:16:55;;;;;;;11.52;9.90;;;;;;;21.28;55.11;102442.97;5032276;28;20029;-79
2021/09/07 04:19:20;;;;;;;12.25;10.27;;;;;;;21.29;55.15;102434.19;4983302;28;20084;-80
2021/09/07 04:21:45;;;;;;;11.52;9.85;;;;;;;21.20;55.30;102422.69;4983714;28;20025;-80
2021/09/07 04:24:11;;;;;;;12.48;9.23;;;;;;;21.30;55.28;102446.47;5021472;28;20483;-80
2021/09/07 04:26:36;;;;;;;12.77;9.70;;;;;;;21.18;55.00;102427.03;5000326;28;20092;-79
2021/09/07 04:29:04;;;;;;;10.10;9.05;;;;;;;21.21;55.58;102424.47;4987100;28;20024;-84
2021/09/07 04:31:31;;;;;;;11.35;9.82;;;;;;;21.25;56.03;102435.03;5019245;28;20029;-83
2021/09/07 04:33:57;;;;;;;13.82;10.85;;;;;;;21.20;55.56;102425.34;5003517;28;20025;-81
2021/09/07 04:36:22;;;;;;;10.88;8.98;;;;;;;21.34;55.45;102444.75;5031960;28;20025;-79
2021/09/07 04:38:47;;;;;;;11.07;8.25;;;;;;;21.18;55.46;102416.50;4999077;28;20037;-80
2021/09/07 04:41:13;;;;;;;9.65;8.65;;;;;;;21.25;55.68;102423.63;4999171;28;20052;-81
2021/09/07 04:43:38;;;;;;;9.80;8.73;;;;;;;21.36;55.66;102446.53;4999657;28;20030;-80
2021/09/07 04:46:04;;;;;;;11.93;9.77;;;;;;;21.38;55.78;102446.56;5000463;28;20427;-80
2021/09/07 04:48:29;;;;;;;11.75;9.27;;;;;;;21.28;55.71;102427.19;5019645;28;20034;-80
2021/09/07 04:50:54;;;;;;;10.35;8.93;;;;;;;21.30;55.65;102435.06;5002863;28;20036;-80
2021/09/07 04:53:20;;;;;;;9.50;7.95;;;;;;;21.27;55.60;102428.03;5035887;28;20403;-79
2021/09/07 04:55:47;;;;;;;9.95;8.82;;;;;;;21.37;55.73;102448.31;5018950;28;20028;-75
2021/09/07 04:58:13;;;;;;;12.82;8.93;;;;;;;21.41;55.73;102457.13;5027028;28;20029;-76
2021/09/07 05:00:38;;;;;;;10.77;8.10;;;;;;;21.24;55.80;102429.75;5036979;28;20036;-79
2021/09/07 05:03:03;;;;;;;9.90;8.68;;;;;;;21.33;56.08;102435.97;5028763;28;20065;-79
2021/09/07 05:05:29;;;;;;;11.05;8.50;;;;;;;21.37;56.23;102442.16;4996896;28;20021;-79
2021/09/07 05:07:54;;;;;;;11.50;9.02;;;;;;;21.24;55.93;102416.59;5006384;28;20475;-79
2021/09/07 05:10:20;;;;;;;10.82;7.68;;;;;;;21.33;56.18;102438.59;5012418;28;20025;-79
2021/09/07 05:12:45;;;;;;;11.88;9.32;;;;;;;21.36;55.93;102440.38;5019114;28;20022;-79
2021/09/07 05:15:11;;;;;;;16.50;11.18;;;;;;;21.35;55.81;102449.16;5054894;28;20021;-79
2021/09/07 05:17:37;;;;;;;13.75;10.43;;;;;;;21.31;55.68;102444.72;5038319;28;20033;-79
2021/09/07 05:20:03;;;;;;;13.00;9.93;;;;;;;21.15;56.21;102413.88;5021872;28;20036;-79
2021/09/07 05:22:29;;;;;;;12.82;9.15;;;;;;;21.29;56.95;102430.69;5055056;28;20021;-79
2021/09/07 05:24:54;;;;;;;10.88;8.25;;;;;;;21.34;56.06;102448.28;5038641;28;20119;-79
2021/09/07 05:27:20;;;;;;;13.40;9.30;;;;;;;21.39;56.09;102456.22;5005512;28;20121;-79
2021/09/07 05:29:45;;;;;;;13.82;9.50;;;;;;;21.25;55.83;102435.03;5005858;28;20036;-80
2021/09/07 05:32:11;;;;;;;13.75;10.10;;;;;;;21.35;55.84;102455.28;5006014;28;20056;-79
2021/09/07 05:34:37;;;;;;;16.70;14.32;;;;;;;21.29;55.58;102451.75;5021950;28;20028;-79
2021/09/07 05:37:03;;;;;;;19.08;15.25;;;;;;;21.15;54.78;102440.19;5041427;28;20067;-79
2021/09/07 05:39:29;;;;;;;20.45;15.52;;;;;;;21.19;55.25;102450.75;5038215;28;20037;-79
2021/09/07 05:41:55;;;;;;;22.45;16.77;;;;;;;21.08;54.73;102448.88;5031034;28;20011;-81
2021/09/07 05:44:21;;;;;;;21.38;18.45;;;;;;;20.98;54.95;102451.41;5024509;28;20029;-79
2021/09/07 05:46:47;;;;;;;20.88;15.60;;;;;;;20.96;54.44;102450.50;5038658;28;20051;-80
2021/09/07 05:49:12;;;;;;;25.63;20.05;;;;;;;20.93;54.63;102458.34;5038714;28;20021;-82
2021/09/07 05:51:38;;;;;;;24.58;19.52;;;;;;;20.92;54.21;102467.13;5038402;28;20032;-80
2021/09/07 05:54:03;;;;;;;26.35;18.70;;;;;;;20.86;54.47;102458.28;5005455;28;20035;-79
2021/09/07 05:56:29;;;;;;;25.13;18.40;;;;;;;20.81;54.17;102460.84;5055401;28;20028;-79
2021/09/07 05:58:57;;;;;;;26.10;18.95;;;;;;;20.89;54.50;102482.88;5006577;28;20028;-82
2021/09/07 06:01:27;;;;;;;23.85;17.85;;;;;;;20.85;54.58;102478.44;5042814;28;20017;-86
2021/09/07 06:03:54;;;;;;;25.25;19.83;;;;;;;20.81;54.38;102478.38;5027335;28;20575;-89
2021/09/07 06:06:21;;;;;;;27.48;19.08;;;;;;;20.62;54.68;102445.75;5041525;28;20471;-90
2021/09/07 06:08:49;;;;;;;25.45;19.15;;;;;;;20.83;54.53;102472.28;5057154;28;20040;-80
2021/09/07 06:11:20;;;;;;;25.10;19.85;;;;;;;20.86;54.56;102482.84;5038898;28;20021;-85
2021/09/07 06:13:46;;;;;;;24.88;18.67;;;;;;;20.81;54.65;102471.38;5037749;28;20056;-80
2021/09/07 06:16:12;;;;;;;31.45;23.05;;;;;;;20.34;54.99;102458.53;5055311;28;20083;-79
2021/09/07 06:18:38;;;;;;;32.75;23.73;;;;;;;19.71;56.87;102458.50;5004380;28;20033;-80
2021/09/07 06:21:04;;;;;;;30.30;20.50;;;;;;;19.66;57.55;102472.41;5021373;28;20017;-79
2021/09/07 06:23:29;;;;;;;34.42;24.67;;;;;;;19.42;57.74;102454.47;5037121;28;20425;-80
2021/09/07 06:25:58;;;;;;;27.15;21.55;;;;;;;19.46;57.97;102469.41;5037488;28;20119;-83
2021/09/07 06:28:24;;;;;;;28.38;22.30;;;;;;;19.57;58.29;102483.63;5037951;28;20537;-79
2021/09/07 06:30:49;;;;;;;29.92;22.77;;;;;;;19.27;58.71;102463.84;5020671;28;20036;-79
2021/09/07 06:33:14;;;;;;;32.72;23.88;;;;;;;19.33;58.70;102455.22;5037367;28;20394;-80
2021/09/07 06:35:40;;;;;;;33.15;24.20;;;;;;;19.37;58.91;102464.00;5037318;28;20032;-78
2021/09/07 06:38:05;;;;;;;33.20;23.77;;;;;;;19.36;58.38;102452.63;5037191;28;20487;-80
2021/09/07 06:40:31;;;;;;;30.95;24.35;;;;;;;19.45;58.57;102465.91;5020508;28;20029;-80
2021/09/07 06:42:56;;;;;;;35.10;24.45;;;;;;;19.33;58.75;102455.22;5053938;28;20119;-80
2021/09/07 06:45:22;;;;;;;35.85;24.60;;;;;;;19.38;58.71;102440.41;5037243;28;20128;-80
2021/09/07 06:47:47;;;;;;;36.00;24.40;;;;;;;19.41;58.77;102447.47;5020449;28;20025;-80
2021/09/07 06:50:12;;;;;;;33.88;25.30;;;;;;;19.52;58.97;102472.16;5020699;28;20608;-80
2021/09/07 06:52:38;;;;;;;38.95;25.38;;;;;;;19.61;58.69;102464.44;5020710;28;20029;-81
2021/09/07 06:55:04;;;;;;;33.60;24.30;;;;;;;19.58;58.78;102457.41;5020873;28;20037;-81
2021/09/07 06:57:29;;;;;;;34.67;25.85;;;;;;;19.55;59.10;102451.22;5053885;28;20035;-82
2021/09/07 06:59:56;;;;;;;31.95;23.10;;;;;;;19.46;59.28;102453.69;5020953;28;20137;-82
2021/09/07 07:02:21;;;;;;;34.30;24.88;;;;;;;19.59;59.23;102469.69;5036960;28;20021;-79
2021/09/07 07:04:47;;;;;;;37.05;26.90;;;;;;;19.61;59.35;102474.94;5020362;28;20052;-80
2021/09/07 07:07:13;;;;;;;36.05;25.50;;;;;;;19.54;59.31;102447.72;5036880;28;20489;-80
2021/09/07 07:09:39;;;;;;;32.83;23.23;;;;;;;19.77;59.36;102478.69;5035836;28;20028;-80
2021/09/07 07:12:05;;;;;;;32.88;24.27;;;;;;;19.78;58.67;102462.09;5020476;28;20043;-80
2021/09/07 07:14:31;;;;;;;33.65;24.70;;;;;;;19.87;58.13;102470.97;5020413;28;20040;-80
2021/09/07 07:16:56;;;;;;;45.50;24.15;;;;;;;19.87;57.49;102455.22;5036878;28;20119;-80
2021/09/07 07:19:22;;;;;;;32.30;24.85;;;;;;;19.87;57.35;102449.97;5037419;28;20466;-80
2021/09/07 07:21:48;;;;;;;35.45;22.42;;;;;;;20.12;57.08;102482.75;5020529;28;20028;-79
2021/09/07 07:24:16;;;;;;;33.60;22.02;;;;;;;20.06;56.47;102468.63;5020205;28;20056;-79
2021/09/07 07:26:41;;;;;;;30.55;22.40;;;;;;;20.16;56.52;102489.78;5036526;28;20082;-79
2021/09/07 07:29:07;;;;;;;31.02;22.25;;;;;;;20.18;56.24;102488.06;5003573;28;20033;-79
2021/09/07 07:31:32;;;;;;;27.73;22.40;;;;;;;20.14;56.59;102459.09;5020099;28;20052;-79
2021/09/07 07:33:58;;;;;;;27.63;20.45;;;;;;;20.16;56.04;102463.53;5003664;28;20064;-80
2021/09/07 07:36:23;;;;;;;30.80;22.08;;;;;;;20.27;55.85;102484.69;5020217;28;20096;-80
2021/09/07 07:38:48;;;;;;;31.17;23.40;;;;;;;20.31;56.13;102495.25;5036273;28;20149;-79
2021/09/07 07:41:14;;;;;;;29.52;22.40;;;;;;;20.34;56.38;102495.31;5036351;28;20033;-80
2021/09/07 07:43:44;;;;;;;33.35;23.58;;;;;;;20.24;56.43;102477.66;5020194;28;20475;-79
2021/09/07 07:46:10;;;;;;;27.90;21.85;;;;;;;20.19;56.25;102471.44;5020812;28;20497;-80
2021/09/07 07:48:36;;;;;;;27.85;20.08;;;;;;;20.38;56.31;102495.41;5020031;28;20052;-79
2021/09/07 07:51:01;;;;;;;31.07;21.93;;;;;;;20.29;56.19;102482.97;5019795;28;20102;-80
2021/09/07 07:53:29;;;;;;;32.75;21.08;;;;;;;20.46;56.36;102493.75;5036362;28;20190;-80
2021/09/07 07:55:54;;;;;;;24.65;19.70;;;;;;;20.38;56.38;102479.63;5019963;28;20029;-80
2021/09/07 07:58:20;;;;;;;30.80;21.50;;;;;;;20.55;55.74;102496.47;5003932;28;20496;-79
2021/09/07 08:00:46;;;;;;;27.55;22.00;;;;;;;20.55;55.60;102493.84;5053082;28;20371;-81
2021/09/07 08:03:12;;;;;;;25.98;19.80;;;;;;;20.52;55.50;102504.31;5037441;28;20407;-82
2021/09/07 08:05:38;;;;;;;28.75;22.02;;;;;;;20.52;55.60;102494.69;5036745;28;20021;-81
2021/09/07 08:08:04;;;;;;;31.33;19.48;;;;;;;20.50;55.21;102480.66;5037242;28;20047;-81
2021/09/07 08:10:29;;;;;;;28.98;18.30;;;;;;;20.68;55.21;102493.13;5036877;28;20017;-80
2021/09/07 08:12:54;;;;;;;24.63;18.70;;;;;;;20.73;55.11;102495.81;5020206;28;20053;-81
2021/09/07 08:15:20;;;;;;;26.35;18.50;;;;;;;20.80;54.48;102503.78;5004142;28;20095;-80
2021/09/07 08:17:45;;;;;;;28.25;17.83;;;;;;;20.79;54.83;102490.63;5036245;28;20037;-81
2021/09/07 08:20:11;;;;;;;28.05;18.58;;;;;;;20.91;54.47;102504.78;5036266;28;20024;-81
2021/09/07 08:22:36;;;;;;;24.42;18.08;;;;;;;20.94;54.07;102498.69;5023347;28;20192;-81
2021/09/07 08:25:02;;;;;;;24.17;17.83;;;;;;;20.97;54.20;102504.00;5006760;28;20383;-80
2021/09/07 08:27:28;;;;;;;21.27;17.30;;;;;;;20.93;53.55;102497.81;5039855;28;20086;-81
2021/09/07 08:29:53;;;;;;;23.52;16.70;;;;;;;20.95;54.19;102497.81;5039888;28;20032;-81
2021/09/07 08:32:19;;;;;;;22.45;15.77;;;;;;;20.95;54.27;102493.44;5023635;28;20059;-81
2021/09/07 08:34:44;;;;;;;22.92;17.00;;;;;;;20.90;53.16;102474.09;5024328;28;20036;-82
2021/09/07 08:37:13;;;;;;;20.95;16.60;;;;;;;20.86;53.88;102456.53;5024363;28;20155;-81
2021/09/07 08:39:39;;;;;;;27.63;17.08;;;;;;;20.96;52.87;102471.53;5040104;28;20025;-81
2021/09/07 08:42:11;;;;;;;21.33;18.02;;;;;;;21.17;52.99;102501.56;5040581;28;20029;-80
2021/09/07 08:44:36;;;;;;;23.67;16.60;;;;;;;21.20;52.82;102502.50;5040239;28;20048;-80
2021/09/07 08:47:02;;;;;;;19.55;13.23;;;;;;;21.12;53.26;102487.50;5023897;28;20479;-79
2021/09/07 08:49:27;;;;;;;19.98;13.55;;;;;;;21.24;53.28;102499.06;5056155;28;20088;-79
2021/09/07 08:51:53;;;;;;;19.92;14.75;;;;;;;21.16;54.06;102484.03;5055988;28;20029;-80
2021/09/07 08:54:18;;;;;;;20.38;14.30;;;;;;;21.16;53.45;102470.88;5041407;28;20116;-80
2021/09/07 08:56:44;;;;;;;14.98;11.65;;;;;;;21.23;54.32;102492.03;5040647;28;20024;-79
2021/09/07 08:59:09;;;;;;;16.52;13.05;;;;;;;21.29;53.77;102492.06;5022495;28;20032;-79
2021/09/07 09:01:40;;;;;;;16.83;13.32;;;;;;;21.33;53.53;102493.00;5055464;28;20108;-78
2021/09/07 09:04:24;;;;;;;15.50;11.45;;;;;;;21.33;53.64;102490.34;5022705;28;20056;-81
2021/09/07 09:06:49;;;;;;;14.38;11.32;;;;;;;21.20;54.59;102470.06;5055277;28;20021;-79
2021/09/07 09:09:15;;;;;;;15.50;10.20;;;;;;;21.26;54.00;102478.03;5055298;28;20033;-79
2021/09/07 09:11:54;;;;;;;16.80;11.20;;;;;;;21.28;53.83;102479.81;5021783;28;20511;-79
2021/09/07 09:14:40;;;;;;;14.95;10.88;;;;;;;21.42;53.64;102497.47;5038359;28;20024;-80
2021/09/07 09:17:17;;;;;;;14.38;10.38;;;;;;;21.43;53.80;102488.69;5038704;28;20059;-79
2021/09/07 09:19:52;;;;;;;12.00;9.57;;;;;;;21.44;53.93;102491.31;5038378;28;20048;-79
2021/09/07 09:22:18;;;;;;;14.38;9.65;;;;;;;21.44;54.05;102496.59;5038333;28;20013;-80
2021/09/07 09:24:44;;;;;;;11.20;9.45;;;;;;;21.43;53.97;102496.56;5038176;28;20029;-80
2021/09/07 09:27:10;;;;;;;12.93;9.82;;;;;;;21.36;53.85;102482.50;5037949;28;20028;-79
2021/09/07 09:29:38;;;;;;;13.25;9.90;;;;;;;21.48;53.93;102497.50;5037926;28;20470;-79
2021/09/07 09:32:13;;;;;;;12.13;10.05;;;;;;;21.50;53.92;102501.94;5020362;28;20544;-79
2021/09/07 09:34:40;;;;;;;10.00;8.30;;;;;;;21.35;54.02;102475.47;5021583;28;20033;-79
2021/09/07 09:37:09;;;;;;;10.98;8.68;;;;;;;21.44;53.92;102490.44;5037724;28;20041;-80
2021/09/07 09:39:38;;;;;;;10.48;8.80;;;;;;;21.53;54.17;102495.81;5038020;28;20064;-79
2021/09/07 09:42:04;;;;;;;10.43;8.77;;;;;;;21.43;54.01;102480.78;5038316;28;20447;-79
2021/09/07 09:44:30;;;;;;;12.50;9.70;;;;;;;21.50;54.29;102494.03;5021684;28;20037;-79
2021/09/07 09:46:56;;;;;;;10.23;8.65;;;;;;;21.50;54.01;102491.41;5021701;28;20020;-80
2021/09/07 09:49:26;;;;;;;10.75;8.70;;;;;;;21.38;54.15;102475.50;5021910;28;20082;-79
2021/09/07 09:51:59;;;;;;;9.52;8.52;;;;;;;21.47;54.08;102488.72;5038984;28;20025;-79
2021/09/07 09:54:25;;;;;;;9.98;8.93;;;;;;;21.51;54.13;102493.16;5055946;28;20112;-80
2021/09/07 09:56:51;;;;;;;9.68;8.07;;;;;;;21.49;54.24;102487.00;5022684;28;20025;-80
2021/09/07 09:59:18;;;;;;;11.40;9.13;;;;;;;21.54;54.23;102490.56;5021909;28;20566;-79
2021/09/07 10:01:44;;;;;;;11.27;9.18;;;;;;;21.40;54.33;102468.50;5055113;28;20106;-79
2021/09/07 10:04:11;;;;;;;12.10;9.30;;;;;;;21.46;54.35;102481.69;5005986;28;20029;-81
2021/09/07 10:06:37;;;;;;;11.52;8.05;;;;;;;21.48;54.54;102481.72;5040415;28;20021;-79
2021/09/07 10:09:03;;;;;;;11.77;8.82;;;;;;;21.34;54.43;102461.44;5024116;28;20036;-79
2021/09/07 10:11:31;;;;;;;10.35;8.25;;;;;;;21.39;54.51;102467.63;5057071;28;20024;-80
2021/09/07 10:14:02;;;;;;;9.95;8.10;;;;;;;21.44;54.46;102467.63;5040759;28;20067;-79
2021/09/07 10:16:44;;;;;;;9.35;8.35;;;;;;;21.53;54.25;102477.38;5057109;28;20025;-80
2021/09/07 10:19:16;;;;;;;9.55;8.02;;;;;;;21.47;54.47;102466.78;5057395;28;20100;-78
2021/09/07 10:24:20;;;;;;;9.13;8.23;;;;;;;21.58;54.46;102481.81;5057498;28;20122;-79
2021/09/07 10:26:46;;;;;;;8.88;7.97;;;;;;;21.59;54.43;102480.94;5023772;28;20036;-78
2021/09/07 10:29:21;;;;;;;9.20;8.18;;;;;;;21.57;54.40;102477.41;5038750;28;20025;-80
2021/09/07 10:31:48;;;;;;;9.73;8.00;;;;;;;21.59;54.09;102473.03;5056022;28;20025;-79
2021/09/07 10:34:15;;;;;;;10.07;9.02;;;;;;;21.60;54.40;102482.69;5039608;28;20453;-79
2021/09/07 10:37:11;;;;;;;9.88;7.75;;;;;;;21.57;54.40;102466.88;5022758;28;20029;-84
2021/09/07 10:39:41;;;;;;;8.73;7.68;;;;;;;21.52;54.37;102451.94;4997939;28;20045;-79
2021/09/07 10:42:34;;;;;;;10.02;8.35;;;;;;;21.59;54.33;102459.88;5055750;28;20017;-79
2021/09/07 10:45:00;;;;;;;9.70;8.48;;;;;;;21.62;54.56;102470.44;5024977;28;20102;-79
2021/09/07 10:47:42;;;;;;;9.65;7.50;;;;;;;21.52;54.38;102447.56;5020784;28;20037;-80
2021/09/07 10:50:09;;;;;;;8.45;7.43;;;;;;;21.57;54.59;102461.59;5039943;28;20028;-79
2021/09/07 10:52:36;;;;;;;9.40;8.50;;;;;;;21.49;54.57;102442.25;5039016;28;20355;-80
2021/09/07 10:55:22;;;;;;;8.60;7.75;;;;;;;21.63;54.55;102459.03;5039311;28;20028;-80
2021/09/07 10:57:52;;;;;;;8.13;7.30;;;;;;;21.57;54.42;102451.06;5039962;28;20024;-79
2021/09/07 11:00:21;;;;;;;8.80;7.68;;;;;;;21.64;54.27;102458.16;5039387;28;20387;-79
2021/09/07 11:02:50;;;;;;;9.43;8.32;;;;;;;21.64;54.57;102455.53;5039667;28;20181;-78
2021/09/07 11:05:24;;;;;;;9.00;7.72;;;;;;;21.64;54.55;102452.91;5039313;28;20024;-79
2021/09/07 11:08:10;;;;;;;8.95;7.95;;;;;;;21.66;54.55;102452.91;5039200;28;20074;-78
2021/09/07 11:10:42;;;;;;;8.18;6.85;;;;;;;21.51;54.64;102422.09;5025565;28;20025;-78
2021/09/07 11:13:19;;;;;;;10.40;9.27;;;;;;;21.64;54.48;102446.75;5038400;28;20017;-79
2021/09/07 11:15:46;;;;;;;8.70;7.18;;;;;;;21.55;54.74;102429.13;5038370;28;20513;-79